sensor_id;sensor_type;location;lat;lon;timestamp;P1;durP1;ratioP1;P2;durP2;ratioP2
15312;SDS011;7757;52.626;4.746;2023-07-13T00:00:34;7.97;;;1.50;;
15312;SDS011;7757;52.626;4.746;2023-07-13T00:03:01;11.40;;;1.90;;
15312;SDS011;7757;52.626;4.746;2023-07-13T00:05:27;8.68;;;1.40;;
15312;SDS011;7757;52.626;4.746;2023-07-13T00:07:52;6.47;;;1.33;;
15312;SDS011;7757;52.626;4.746;2023-07-13T00:10:19;14.85;;;1.80;;
15312;SDS011;7757;52.626;4.746;2023-07-13T00:12:46;11.52;;;1.77;;
15312;SDS011;7757;52.626;4.746;2023-07-13T00:15:20;11.50;;;1.77;;
15312;SDS011;7757;52.626;4.746;2023-07-13T00:17:51;15.00;;;2.35;;
15312;SDS011;7757;52.626;4.746;2023-07-13T00:20:19;14.68;;;2.70;;
15312;SDS011;7757;52.626;4.746;2023-07-13T00:22:53;11.55;;;1.95;;
15312;SDS011;7757;52.626;4.746;2023-07-13T00:25:22;13.95;;;2.05;;
15312;SDS011;7757;52.626;4.746;2023-07-13T00:27:49;17.52;;;2.30;;
15312;SDS011;7757;52.626;4.746;2023-07-13T00:30:18;12.85;;;2.25;;
15312;SDS011;7757;52.626;4.746;2023-07-13T00:32:44;11.75;;;2.30;;
15312;SDS011;7757;52.626;4.746;2023-07-13T00:35:09;13.13;;;2.30;;
15312;SDS011;7757;52.626;4.746;2023-07-13T00:37:36;10.45;;;2.08;;
15312;SDS011;7757;52.626;4.746;2023-07-13T00:40:02;15.02;;;2.55;;
15312;SDS011;7757;52.626;4.746;2023-07-13T00:42:29;19.75;;;2.25;;
15312;SDS011;7757;52.626;4.746;2023-07-13T00:45:03;14.85;;;2.53;;
15312;SDS011;7757;52.626;4.746;2023-07-13T00:47:38;17.85;;;2.40;;
15312;SDS011;7757;52.626;4.746;2023-07-13T00:50:05;15.60;;;2.42;;
15312;SDS011;7757;52.626;4.746;2023-07-13T00:52:34;13.85;;;2.35;;
15312;SDS011;7757;52.626;4.746;2023-07-13T00:55:01;13.35;;;2.20;;
15312;SDS011;7757;52.626;4.746;2023-07-13T00:57:28;11.68;;;2.22;;
15312;SDS011;7757;52.626;4.746;2023-07-13T00:59:54;14.85;;;2.70;;
15312;SDS011;7757;52.626;4.746;2023-07-13T01:02:23;13.35;;;2.20;;
15312;SDS011;7757;52.626;4.746;2023-07-13T01:04:49;12.23;;;2.10;;
15312;SDS011;7757;52.626;4.746;2023-07-13T01:07:14;12.52;;;2.10;;
15312;SDS011;7757;52.626;4.746;2023-07-13T01:09:40;14.98;;;2.33;;
15312;SDS011;7757;52.626;4.746;2023-07-13T01:12:06;10.25;;;2.05;;
15312;SDS011;7757;52.626;4.746;2023-07-13T01:14:32;12.73;;;2.03;;
15312;SDS011;7757;52.626;4.746;2023-07-13T01:16:58;12.13;;;1.92;;
15312;SDS011;7757;52.626;4.746;2023-07-13T01:19:38;10.55;;;1.90;;
15312;SDS011;7757;52.626;4.746;2023-07-13T01:22:11;12.60;;;1.90;;
15312;SDS011;7757;52.626;4.746;2023-07-13T01:24:41;11.32;;;1.95;;
15312;SDS011;7757;52.626;4.746;2023-07-13T01:27:08;8.82;;;1.58;;
15312;SDS011;7757;52.626;4.746;2023-07-13T01:29:36;6.88;;;1.48;;
15312;SDS011;7757;52.626;4.746;2023-07-13T01:32:08;10.38;;;2.00;;
15312;SDS011;7757;52.626;4.746;2023-07-13T01:34:35;11.02;;;2.10;;
15312;SDS011;7757;52.626;4.746;2023-07-13T01:37:02;9.63;;;1.80;;
15312;SDS011;7757;52.626;4.746;2023-07-13T01:39:28;11.55;;;1.80;;
15312;SDS011;7757;52.626;4.746;2023-07-13T01:41:54;9.07;;;1.60;;
15312;SDS011;7757;52.626;4.746;2023-07-13T01:44:19;11.70;;;2.00;;
15312;SDS011;7757;52.626;4.746;2023-07-13T01:46:45;9.43;;;1.70;;
15312;SDS011;7757;52.626;4.746;2023-07-13T01:49:11;9.68;;;1.88;;
15312;SDS011;7757;52.626;4.746;2023-07-13T01:51:36;9.23;;;1.75;;
15312;SDS011;7757;52.626;4.746;2023-07-13T01:54:02;11.73;;;1.67;;
15312;SDS011;7757;52.626;4.746;2023-07-13T01:56:31;11.60;;;1.80;;
15312;SDS011;7757;52.626;4.746;2023-07-13T01:58:56;11.35;;;1.80;;
15312;SDS011;7757;52.626;4.746;2023-07-13T02:01:25;10.75;;;1.98;;
15312;SDS011;7757;52.626;4.746;2023-07-13T02:03:51;10.45;;;2.00;;
15312;SDS011;7757;52.626;4.746;2023-07-13T02:06:16;12.25;;;2.10;;
15312;SDS011;7757;52.626;4.746;2023-07-13T02:08:42;7.65;;;1.60;;
15312;SDS011;7757;52.626;4.746;2023-07-13T02:11:07;11.45;;;1.83;;
15312;SDS011;7757;52.626;4.746;2023-07-13T02:13:33;10.23;;;1.63;;
15312;SDS011;7757;52.626;4.746;2023-07-13T02:15:59;10.88;;;1.80;;
15312;SDS011;7757;52.626;4.746;2023-07-13T02:18:28;9.93;;;1.70;;
15312;SDS011;7757;52.626;4.746;2023-07-13T02:20:54;12.93;;;1.92;;
15312;SDS011;7757;52.626;4.746;2023-07-13T02:23:20;9.55;;;1.65;;
15312;SDS011;7757;52.626;4.746;2023-07-13T02:25:45;11.60;;;1.90;;
15312;SDS011;7757;52.626;4.746;2023-07-13T02:28:11;12.68;;;2.05;;
15312;SDS011;7757;52.626;4.746;2023-07-13T02:30:37;10.95;;;1.88;;
15312;SDS011;7757;52.626;4.746;2023-07-13T02:33:03;13.15;;;2.20;;
15312;SDS011;7757;52.626;4.746;2023-07-13T02:35:30;11.98;;;1.88;;
15312;SDS011;7757;52.626;4.746;2023-07-13T02:37:55;9.27;;;1.73;;
15312;SDS011;7757;52.626;4.746;2023-07-13T02:40:21;10.07;;;1.80;;
15312;SDS011;7757;52.626;4.746;2023-07-13T02:42:47;14.30;;;2.00;;
15312;SDS011;7757;52.626;4.746;2023-07-13T02:45:13;12.70;;;2.22;;
15312;SDS011;7757;52.626;4.746;2023-07-13T02:47:40;7.57;;;1.75;;
15312;SDS011;7757;52.626;4.746;2023-07-13T02:50:06;10.00;;;2.00;;
15312;SDS011;7757;52.626;4.746;2023-07-13T02:52:34;11.65;;;1.70;;
15312;SDS011;7757;52.626;4.746;2023-07-13T02:55:00;12.55;;;2.10;;
15312;SDS011;7757;52.626;4.746;2023-07-13T02:57:26;9.60;;;1.75;;
15312;SDS011;7757;52.626;4.746;2023-07-13T02:59:53;13.40;;;2.05;;
15312;SDS011;7757;52.626;4.746;2023-07-13T03:02:19;11.02;;;2.00;;
15312;SDS011;7757;52.626;4.746;2023-07-13T03:04:45;10.45;;;2.00;;
15312;SDS011;7757;52.626;4.746;2023-07-13T03:07:11;8.98;;;1.83;;
15312;SDS011;7757;52.626;4.746;2023-07-13T03:09:37;10.13;;;1.80;;
15312;SDS011;7757;52.626;4.746;2023-07-13T03:12:02;8.10;;;1.80;;
15312;SDS011;7757;52.626;4.746;2023-07-13T03:14:28;11.57;;;2.08;;
15312;SDS011;7757;52.626;4.746;2023-07-13T03:16:55;9.98;;;1.92;;
15312;SDS011;7757;52.626;4.746;2023-07-13T03:19:20;10.63;;;2.10;;
15312;SDS011;7757;52.626;4.746;2023-07-13T03:21:46;10.63;;;1.80;;
15312;SDS011;7757;52.626;4.746;2023-07-13T03:24:11;12.25;;;1.90;;
15312;SDS011;7757;52.626;4.746;2023-07-13T03:26:37;8.57;;;1.88;;
15312;SDS011;7757;52.626;4.746;2023-07-13T03:29:03;8.93;;;1.80;;
15312;SDS011;7757;52.626;4.746;2023-07-13T03:31:29;10.48;;;2.08;;
15312;SDS011;7757;52.626;4.746;2023-07-13T03:33:59;9.77;;;1.88;;
15312;SDS011;7757;52.626;4.746;2023-07-13T03:36:26;10.82;;;1.77;;
15312;SDS011;7757;52.626;4.746;2023-07-13T03:38:53;11.48;;;1.88;;
15312;SDS011;7757;52.626;4.746;2023-07-13T03:41:22;8.88;;;1.90;;
15312;SDS011;7757;52.626;4.746;2023-07-13T03:43:48;14.38;;;2.10;;
15312;SDS011;7757;52.626;4.746;2023-07-13T03:46:17;11.13;;;1.80;;
15312;SDS011;7757;52.626;4.746;2023-07-13T03:48:44;9.63;;;1.80;;
15312;SDS011;7757;52.626;4.746;2023-07-13T03:51:11;10.00;;;1.90;;
15312;SDS011;7757;52.626;4.746;2023-07-13T03:53:40;11.70;;;2.13;;
15312;SDS011;7757;52.626;4.746;2023-07-13T03:56:07;12.35;;;2.30;;
15312;SDS011;7757;52.626;4.746;2023-07-13T03:58:37;11.80;;;2.45;;
15312;SDS011;7757;52.626;4.746;2023-07-13T04:01:05;10.38;;;2.05;;
15312;SDS011;7757;52.626;4.746;2023-07-13T04:03:33;14.75;;;2.35;;
15312;SDS011;7757;52.626;4.746;2023-07-13T04:05:59;11.45;;;1.83;;
15312;SDS011;7757;52.626;4.746;2023-07-13T04:08:30;10.18;;;2.10;;
15312;SDS011;7757;52.626;4.746;2023-07-13T04:10:57;8.77;;;1.88;;
15312;SDS011;7757;52.626;4.746;2023-07-13T04:13:24;11.02;;;2.08;;
15312;SDS011;7757;52.626;4.746;2023-07-13T04:15:50;12.13;;;2.40;;
15312;SDS011;7757;52.626;4.746;2023-07-13T04:18:16;9.63;;;1.90;;
15312;SDS011;7757;52.626;4.746;2023-07-13T04:20:42;11.00;;;1.83;;
15312;SDS011;7757;52.626;4.746;2023-07-13T04:23:07;11.07;;;2.13;;
15312;SDS011;7757;52.626;4.746;2023-07-13T04:25:33;9.85;;;2.00;;
15312;SDS011;7757;52.626;4.746;2023-07-13T04:27:58;9.60;;;2.53;;
15312;SDS011;7757;52.626;4.746;2023-07-13T04:30:27;10.38;;;2.00;;
15312;SDS011;7757;52.626;4.746;2023-07-13T04:32:55;9.10;;;1.98;;
15312;SDS011;7757;52.626;4.746;2023-07-13T04:35:21;8.82;;;1.77;;
15312;SDS011;7757;52.626;4.746;2023-07-13T04:37:48;11.48;;;1.90;;
15312;SDS011;7757;52.626;4.746;2023-07-13T04:40:15;11.55;;;1.98;;
15312;SDS011;7757;52.626;4.746;2023-07-13T04:42:43;11.60;;;2.17;;
15312;SDS011;7757;52.626;4.746;2023-07-13T04:45:09;9.85;;;1.90;;
15312;SDS011;7757;52.626;4.746;2023-07-13T04:47:38;9.38;;;2.15;;
15312;SDS011;7757;52.626;4.746;2023-07-13T04:50:05;8.80;;;2.03;;
15312;SDS011;7757;52.626;4.746;2023-07-13T04:52:31;11.90;;;2.03;;
15312;SDS011;7757;52.626;4.746;2023-07-13T04:54:58;9.52;;;2.17;;
15312;SDS011;7757;52.626;4.746;2023-07-13T04:57:31;8.45;;;2.08;;
15312;SDS011;7757;52.626;4.746;2023-07-13T04:59:56;9.55;;;2.00;;
15312;SDS011;7757;52.626;4.746;2023-07-13T05:02:26;8.88;;;2.45;;
15312;SDS011;7757;52.626;4.746;2023-07-13T05:04:53;10.05;;;2.00;;
15312;SDS011;7757;52.626;4.746;2023-07-13T05:07:18;9.27;;;1.90;;
15312;SDS011;7757;52.626;4.746;2023-07-13T05:09:44;11.88;;;2.00;;
15312;SDS011;7757;52.626;4.746;2023-07-13T05:12:10;9.10;;;2.10;;
15312;SDS011;7757;52.626;4.746;2023-07-13T05:14:36;11.35;;;2.60;;
15312;SDS011;7757;52.626;4.746;2023-07-13T05:17:02;13.50;;;2.17;;
15312;SDS011;7757;52.626;4.746;2023-07-13T05:19:27;12.48;;;2.30;;
15312;SDS011;7757;52.626;4.746;2023-07-13T05:21:53;13.43;;;2.33;;
15312;SDS011;7757;52.626;4.746;2023-07-13T05:24:18;11.88;;;2.65;;
15312;SDS011;7757;52.626;4.746;2023-07-13T05:26:44;12.65;;;2.50;;
15312;SDS011;7757;52.626;4.746;2023-07-13T05:29:10;15.27;;;2.40;;
15312;SDS011;7757;52.626;4.746;2023-07-13T05:31:36;12.32;;;2.17;;
15312;SDS011;7757;52.626;4.746;2023-07-13T05:34:01;12.68;;;2.25;;
15312;SDS011;7757;52.626;4.746;2023-07-13T05:36:27;11.85;;;2.25;;
15312;SDS011;7757;52.626;4.746;2023-07-13T05:38:52;10.65;;;2.08;;
15312;SDS011;7757;52.626;4.746;2023-07-13T05:41:18;15.25;;;2.30;;
15312;SDS011;7757;52.626;4.746;2023-07-13T05:43:43;9.25;;;2.28;;
15312;SDS011;7757;52.626;4.746;2023-07-13T05:46:09;14.82;;;2.75;;
15312;SDS011;7757;52.626;4.746;2023-07-13T05:48:38;11.70;;;2.53;;
15312;SDS011;7757;52.626;4.746;2023-07-13T05:51:04;15.95;;;2.72;;
15312;SDS011;7757;52.626;4.746;2023-07-13T05:53:29;15.98;;;2.60;;
15312;SDS011;7757;52.626;4.746;2023-07-13T05:55:55;11.05;;;2.15;;
15312;SDS011;7757;52.626;4.746;2023-07-13T05:58:27;10.98;;;2.33;;
15312;SDS011;7757;52.626;4.746;2023-07-13T06:00:59;10.75;;;2.50;;
15312;SDS011;7757;52.626;4.746;2023-07-13T06:03:26;10.88;;;2.35;;
15312;SDS011;7757;52.626;4.746;2023-07-13T06:05:52;13.68;;;2.85;;
15312;SDS011;7757;52.626;4.746;2023-07-13T06:08:17;11.82;;;2.47;;
15312;SDS011;7757;52.626;4.746;2023-07-13T06:10:43;11.98;;;2.15;;
15312;SDS011;7757;52.626;4.746;2023-07-13T06:13:08;16.35;;;3.10;;
15312;SDS011;7757;52.626;4.746;2023-07-13T06:15:34;13.13;;;2.60;;
15312;SDS011;7757;52.626;4.746;2023-07-13T06:17:59;16.30;;;2.80;;
15312;SDS011;7757;52.626;4.746;2023-07-13T06:20:25;14.07;;;2.60;;
15312;SDS011;7757;52.626;4.746;2023-07-13T06:22:50;13.73;;;2.33;;
15312;SDS011;7757;52.626;4.746;2023-07-13T06:25:16;10.55;;;2.47;;
15312;SDS011;7757;52.626;4.746;2023-07-13T06:27:42;14.07;;;2.70;;
15312;SDS011;7757;52.626;4.746;2023-07-13T06:30:08;13.65;;;2.70;;
15312;SDS011;7757;52.626;4.746;2023-07-13T06:32:37;15.70;;;2.70;;
15312;SDS011;7757;52.626;4.746;2023-07-13T06:35:02;17.80;;;3.17;;
15312;SDS011;7757;52.626;4.746;2023-07-13T06:37:28;12.27;;;2.35;;
15312;SDS011;7757;52.626;4.746;2023-07-13T06:39:54;13.95;;;2.63;;
15312;SDS011;7757;52.626;4.746;2023-07-13T06:42:19;14.38;;;2.50;;
15312;SDS011;7757;52.626;4.746;2023-07-13T06:44:48;12.13;;;2.20;;
15312;SDS011;7757;52.626;4.746;2023-07-13T06:47:13;10.90;;;2.15;;
15312;SDS011;7757;52.626;4.746;2023-07-13T06:49:38;14.02;;;2.50;;
15312;SDS011;7757;52.626;4.746;2023-07-13T06:52:04;20.52;;;2.95;;
15312;SDS011;7757;52.626;4.746;2023-07-13T06:54:30;11.07;;;2.40;;
15312;SDS011;7757;52.626;4.746;2023-07-13T06:56:55;10.00;;;2.25;;
15312;SDS011;7757;52.626;4.746;2023-07-13T06:59:21;10.00;;;2.28;;
15312;SDS011;7757;52.626;4.746;2023-07-13T07:01:46;9.00;;;1.83;;
15312;SDS011;7757;52.626;4.746;2023-07-13T07:04:12;13.13;;;2.20;;
15312;SDS011;7757;52.626;4.746;2023-07-13T07:06:37;11.38;;;1.95;;
15312;SDS011;7757;52.626;4.746;2023-07-13T07:09:03;11.07;;;1.92;;
15312;SDS011;7757;52.626;4.746;2023-07-13T07:11:35;10.05;;;2.30;;
15312;SDS011;7757;52.626;4.746;2023-07-13T07:14:00;8.48;;;1.95;;
15312;SDS011;7757;52.626;4.746;2023-07-13T07:16:26;9.80;;;2.10;;
15312;SDS011;7757;52.626;4.746;2023-07-13T07:18:51;17.35;;;1.98;;
15312;SDS011;7757;52.626;4.746;2023-07-13T07:21:20;13.52;;;2.22;;
15312;SDS011;7757;52.626;4.746;2023-07-13T07:23:48;12.10;;;2.03;;
15312;SDS011;7757;52.626;4.746;2023-07-13T07:26:13;9.13;;;2.13;;
15312;SDS011;7757;52.626;4.746;2023-07-13T07:28:41;13.40;;;2.70;;
15312;SDS011;7757;52.626;4.746;2023-07-13T07:31:07;15.52;;;2.33;;
15312;SDS011;7757;52.626;4.746;2023-07-13T07:33:33;8.80;;;1.85;;
15312;SDS011;7757;52.626;4.746;2023-07-13T07:36:00;13.43;;;2.20;;
15312;SDS011;7757;52.626;4.746;2023-07-13T07:38:26;11.85;;;2.45;;
15312;SDS011;7757;52.626;4.746;2023-07-13T07:40:52;12.73;;;2.53;;
15312;SDS011;7757;52.626;4.746;2023-07-13T07:43:17;12.50;;;2.25;;
15312;SDS011;7757;52.626;4.746;2023-07-13T07:45:44;10.50;;;1.92;;
15312;SDS011;7757;52.626;4.746;2023-07-13T07:48:10;10.07;;;1.98;;
15312;SDS011;7757;52.626;4.746;2023-07-13T07:50:35;10.48;;;2.00;;
15312;SDS011;7757;52.626;4.746;2023-07-13T07:53:02;13.25;;;2.70;;
15312;SDS011;7757;52.626;4.746;2023-07-13T07:55:37;13.30;;;2.20;;
15312;SDS011;7757;52.626;4.746;2023-07-13T07:58:04;11.45;;;2.13;;
15312;SDS011;7757;52.626;4.746;2023-07-13T08:00:31;11.98;;;2.13;;
15312;SDS011;7757;52.626;4.746;2023-07-13T08:02:58;12.15;;;2.60;;
15312;SDS011;7757;52.626;4.746;2023-07-13T08:05:24;9.88;;;1.98;;
15312;SDS011;7757;52.626;4.746;2023-07-13T08:07:50;8.63;;;1.98;;
15312;SDS011;7757;52.626;4.746;2023-07-13T08:10:15;11.10;;;2.17;;
15312;SDS011;7757;52.626;4.746;2023-07-13T08:12:41;9.05;;;2.03;;
15312;SDS011;7757;52.626;4.746;2023-07-13T08:15:08;11.80;;;2.28;;
15312;SDS011;7757;52.626;4.746;2023-07-13T08:17:37;12.88;;;2.20;;
15312;SDS011;7757;52.626;4.746;2023-07-13T08:20:02;14.55;;;2.80;;
15312;SDS011;7757;52.626;4.746;2023-07-13T08:22:29;11.35;;;2.10;;
15312;SDS011;7757;52.626;4.746;2023-07-13T08:24:54;10.85;;;2.10;;
15312;SDS011;7757;52.626;4.746;2023-07-13T08:27:21;11.40;;;2.17;;
15312;SDS011;7757;52.626;4.746;2023-07-13T08:29:51;9.98;;;2.53;;
15312;SDS011;7757;52.626;4.746;2023-07-13T08:32:18;12.15;;;2.45;;
15312;SDS011;7757;52.626;4.746;2023-07-13T08:34:51;10.60;;;2.10;;
15312;SDS011;7757;52.626;4.746;2023-07-13T08:37:20;9.88;;;1.90;;
15312;SDS011;7757;52.626;4.746;2023-07-13T08:39:45;10.80;;;2.42;;
15312;SDS011;7757;52.626;4.746;2023-07-13T08:42:12;13.18;;;2.35;;
15312;SDS011;7757;52.626;4.746;2023-07-13T08:45:01;11.48;;;2.10;;
15312;SDS011;7757;52.626;4.746;2023-07-13T08:47:41;12.57;;;2.25;;
15312;SDS011;7757;52.626;4.746;2023-07-13T08:50:17;12.55;;;2.17;;
15312;SDS011;7757;52.626;4.746;2023-07-13T08:52:44;12.13;;;2.40;;
15312;SDS011;7757;52.626;4.746;2023-07-13T08:55:17;11.85;;;2.10;;
15312;SDS011;7757;52.626;4.746;2023-07-13T08:57:50;11.63;;;2.35;;
15312;SDS011;7757;52.626;4.746;2023-07-13T09:00:22;12.02;;;2.42;;
15312;SDS011;7757;52.626;4.746;2023-07-13T09:02:57;13.68;;;2.50;;
15312;SDS011;7757;52.626;4.746;2023-07-13T09:10:59;14.18;;;2.60;;
15312;SDS011;7757;52.626;4.746;2023-07-13T09:16:06;13.23;;;2.40;;
15312;SDS011;7757;52.626;4.746;2023-07-13T09:18:35;17.23;;;2.65;;
15312;SDS011;7757;52.626;4.746;2023-07-13T09:21:05;11.30;;;2.40;;
15312;SDS011;7757;52.626;4.746;2023-07-13T09:23:35;12.68;;;2.83;;
15312;SDS011;7757;52.626;4.746;2023-07-13T09:26:20;16.05;;;2.65;;
15312;SDS011;7757;52.626;4.746;2023-07-13T09:29:33;11.52;;;2.63;;
15312;SDS011;7757;52.626;4.746;2023-07-13T09:31:47;18.42;;;2.80;;
15312;SDS011;7757;52.626;4.746;2023-07-13T09:34:17;10.82;;;2.40;;
15312;SDS011;7757;52.626;4.746;2023-07-13T09:36:43;10.95;;;2.40;;
15312;SDS011;7757;52.626;4.746;2023-07-13T09:42:16;11.80;;;2.53;;
15312;SDS011;7757;52.626;4.746;2023-07-13T09:47:31;15.80;;;2.47;;
15312;SDS011;7757;52.626;4.746;2023-07-13T09:50:03;13.20;;;2.72;;
15312;SDS011;7757;52.626;4.746;2023-07-13T09:55:14;11.80;;;2.40;;
15312;SDS011;7757;52.626;4.746;2023-07-13T09:57:47;12.35;;;2.38;;
15312;SDS011;7757;52.626;4.746;2023-07-13T10:00:20;15.07;;;2.55;;
15312;SDS011;7757;52.626;4.746;2023-07-13T10:02:49;10.82;;;2.35;;
15312;SDS011;7757;52.626;4.746;2023-07-13T10:05:44;12.20;;;2.47;;
15312;SDS011;7757;52.626;4.746;2023-07-13T10:16:10;11.02;;;2.70;;
15312;SDS011;7757;52.626;4.746;2023-07-13T10:18:57;13.43;;;2.70;;
15312;SDS011;7757;52.626;4.746;2023-07-13T10:21:33;15.00;;;2.67;;
15312;SDS011;7757;52.626;4.746;2023-07-13T10:26:43;13.88;;;2.80;;
15312;SDS011;7757;52.626;4.746;2023-07-13T10:29:14;11.50;;;2.95;;
15312;SDS011;7757;52.626;4.746;2023-07-13T10:31:41;12.18;;;2.55;;
15312;SDS011;7757;52.626;4.746;2023-07-13T10:34:10;12.38;;;2.38;;
15312;SDS011;7757;52.626;4.746;2023-07-13T10:36:40;11.48;;;2.50;;
15312;SDS011;7757;52.626;4.746;2023-07-13T10:39:09;12.50;;;2.70;;
15312;SDS011;7757;52.626;4.746;2023-07-13T10:41:46;10.00;;;2.70;;
15312;SDS011;7757;52.626;4.746;2023-07-13T10:44:26;12.68;;;2.72;;
15312;SDS011;7757;52.626;4.746;2023-07-13T10:46:58;12.80;;;2.60;;
15312;SDS011;7757;52.626;4.746;2023-07-13T10:49:30;11.63;;;2.53;;
15312;SDS011;7757;52.626;4.746;2023-07-13T10:51:57;10.50;;;2.75;;
15312;SDS011;7757;52.626;4.746;2023-07-13T10:57:08;11.65;;;2.40;;
15312;SDS011;7757;52.626;4.746;2023-07-13T10:59:41;13.23;;;2.70;;
15312;SDS011;7757;52.626;4.746;2023-07-13T11:02:24;12.45;;;2.38;;
15312;SDS011;7757;52.626;4.746;2023-07-13T11:04:52;13.65;;;2.60;;
15312;SDS011;7757;52.626;4.746;2023-07-13T11:09:49;11.82;;;2.58;;
15312;SDS011;7757;52.626;4.746;2023-07-13T11:22:41;11.25;;;2.90;;
15312;SDS011;7757;52.626;4.746;2023-07-13T11:25:26;15.63;;;3.00;;
15312;SDS011;7757;52.626;4.746;2023-07-13T11:28:13;13.27;;;3.13;;
15312;SDS011;7757;52.626;4.746;2023-07-13T11:30:44;12.18;;;2.50;;
15312;SDS011;7757;52.626;4.746;2023-07-13T11:33:20;11.55;;;2.67;;
15312;SDS011;7757;52.626;4.746;2023-07-13T11:36:05;11.57;;;2.60;;
15312;SDS011;7757;52.626;4.746;2023-07-13T11:38:43;12.90;;;2.67;;
15312;SDS011;7757;52.626;4.746;2023-07-13T11:41:19;10.95;;;2.40;;
15312;SDS011;7757;52.626;4.746;2023-07-13T11:43:50;12.68;;;3.10;;
15312;SDS011;7757;52.626;4.746;2023-07-13T11:46:25;14.43;;;2.80;;
15312;SDS011;7757;52.626;4.746;2023-07-13T11:48:52;11.00;;;2.88;;
15312;SDS011;7757;52.626;4.746;2023-07-13T11:51:22;10.45;;;2.70;;
15312;SDS011;7757;52.626;4.746;2023-07-13T11:53:53;11.60;;;2.75;;
15312;SDS011;7757;52.626;4.746;2023-07-13T11:56:20;12.63;;;2.88;;
15312;SDS011;7757;52.626;4.746;2023-07-13T11:58:54;39.03;;;2.70;;
15312;SDS011;7757;52.626;4.746;2023-07-13T12:01:31;21.98;;;3.05;;
15312;SDS011;7757;52.626;4.746;2023-07-13T12:04:02;18.73;;;3.10;;
15312;SDS011;7757;52.626;4.746;2023-07-13T12:06:37;13.43;;;2.83;;
15312;SDS011;7757;52.626;4.746;2023-07-13T12:09:12;15.15;;;3.10;;
15312;SDS011;7757;52.626;4.746;2023-07-13T12:11:43;18.25;;;3.10;;
15312;SDS011;7757;52.626;4.746;2023-07-13T12:14:15;13.55;;;2.92;;
15312;SDS011;7757;52.626;4.746;2023-07-13T12:16:42;11.48;;;2.80;;
15312;SDS011;7757;52.626;4.746;2023-07-13T12:19:14;12.73;;;3.13;;
15312;SDS011;7757;52.626;4.746;2023-07-13T12:21:44;13.77;;;2.80;;
15312;SDS011;7757;52.626;4.746;2023-07-13T12:24:17;11.63;;;3.00;;
15312;SDS011;7757;52.626;4.746;2023-07-13T12:26:44;14.35;;;2.97;;
15312;SDS011;7757;52.626;4.746;2023-07-13T12:29:16;14.65;;;2.75;;
15312;SDS011;7757;52.626;4.746;2023-07-13T12:31:52;10.48;;;2.42;;
15312;SDS011;7757;52.626;4.746;2023-07-13T12:34:27;12.50;;;2.80;;
15312;SDS011;7757;52.626;4.746;2023-07-13T12:42:11;12.95;;;3.05;;
15312;SDS011;7757;52.626;4.746;2023-07-13T12:44:49;13.80;;;3.00;;
15312;SDS011;7757;52.626;4.746;2023-07-13T12:47:19;12.23;;;2.60;;
15312;SDS011;7757;52.626;4.746;2023-07-13T12:49:52;10.75;;;2.92;;
15312;SDS011;7757;52.626;4.746;2023-07-13T12:52:23;11.57;;;2.53;;
15312;SDS011;7757;52.626;4.746;2023-07-13T12:55:02;13.13;;;3.08;;
15312;SDS011;7757;52.626;4.746;2023-07-13T12:57:57;11.30;;;3.10;;
15312;SDS011;7757;52.626;4.746;2023-07-13T13:03:03;11.90;;;2.60;;
15312;SDS011;7757;52.626;4.746;2023-07-13T13:07:58;13.70;;;2.85;;
15312;SDS011;7757;52.626;4.746;2023-07-13T13:13:05;11.57;;;3.17;;
15312;SDS011;7757;52.626;4.746;2023-07-13T13:15:34;13.70;;;3.10;;
15312;SDS011;7757;52.626;4.746;2023-07-13T13:18:02;10.05;;;2.80;;
15312;SDS011;7757;52.626;4.746;2023-07-13T13:20:28;11.63;;;2.72;;
15312;SDS011;7757;52.626;4.746;2023-07-13T13:22:53;13.20;;;2.95;;
15312;SDS011;7757;52.626;4.746;2023-07-13T13:25:21;14.48;;;2.92;;
15312;SDS011;7757;52.626;4.746;2023-07-13T13:27:47;11.27;;;2.63;;
15312;SDS011;7757;52.626;4.746;2023-07-13T13:30:14;13.07;;;3.10;;
15312;SDS011;7757;52.626;4.746;2023-07-13T13:32:44;11.60;;;3.03;;
15312;SDS011;7757;52.626;4.746;2023-07-13T13:35:13;11.90;;;2.67;;
15312;SDS011;7757;52.626;4.746;2023-07-13T13:37:42;12.02;;;3.10;;
15312;SDS011;7757;52.626;4.746;2023-07-13T13:40:15;12.05;;;2.92;;
15312;SDS011;7757;52.626;4.746;2023-07-13T13:42:47;15.25;;;3.28;;
15312;SDS011;7757;52.626;4.746;2023-07-13T13:45:14;12.77;;;3.17;;
15312;SDS011;7757;52.626;4.746;2023-07-13T13:47:43;12.80;;;3.13;;
15312;SDS011;7757;52.626;4.746;2023-07-13T13:52:51;12.88;;;2.78;;
15312;SDS011;7757;52.626;4.746;2023-07-13T13:55:19;11.18;;;2.90;;
15312;SDS011;7757;52.626;4.746;2023-07-13T13:57:46;15.80;;;2.83;;
15312;SDS011;7757;52.626;4.746;2023-07-13T14:00:14;12.93;;;3.00;;
15312;SDS011;7757;52.626;4.746;2023-07-13T14:02:43;11.15;;;2.80;;
15312;SDS011;7757;52.626;4.746;2023-07-13T14:05:24;11.52;;;2.88;;
15312;SDS011;7757;52.626;4.746;2023-07-13T14:07:52;12.77;;;2.95;;
15312;SDS011;7757;52.626;4.746;2023-07-13T14:10:20;12.93;;;2.92;;
15312;SDS011;7757;52.626;4.746;2023-07-13T14:12:47;13.65;;;3.00;;
15312;SDS011;7757;52.626;4.746;2023-07-13T14:15:20;10.23;;;2.70;;
15312;SDS011;7757;52.626;4.746;2023-07-13T14:17:47;13.98;;;2.75;;
15312;SDS011;7757;52.626;4.746;2023-07-13T14:20:16;11.38;;;2.95;;
15312;SDS011;7757;52.626;4.746;2023-07-13T14:22:45;12.60;;;2.83;;
15312;SDS011;7757;52.626;4.746;2023-07-13T14:25:15;12.88;;;2.92;;
15312;SDS011;7757;52.626;4.746;2023-07-13T14:27:42;13.57;;;2.97;;
15312;SDS011;7757;52.626;4.746;2023-07-13T14:30:16;11.38;;;2.50;;
15312;SDS011;7757;52.626;4.746;2023-07-13T14:32:43;12.27;;;2.75;;
15312;SDS011;7757;52.626;4.746;2023-07-13T14:35:11;15.00;;;3.00;;
15312;SDS011;7757;52.626;4.746;2023-07-13T14:37:37;14.02;;;2.78;;
15312;SDS011;7757;52.626;4.746;2023-07-13T14:40:11;11.77;;;3.00;;
15312;SDS011;7757;52.626;4.746;2023-07-13T14:42:42;10.65;;;2.92;;
15312;SDS011;7757;52.626;4.746;2023-07-13T14:45:16;11.98;;;2.95;;
15312;SDS011;7757;52.626;4.746;2023-07-13T14:52:46;10.77;;;2.88;;
15312;SDS011;7757;52.626;4.746;2023-07-13T14:55:14;10.98;;;3.10;;
15312;SDS011;7757;52.626;4.746;2023-07-13T14:57:42;11.95;;;2.90;;
15312;SDS011;7757;52.626;4.746;2023-07-13T15:00:14;13.00;;;2.80;;
15312;SDS011;7757;52.626;4.746;2023-07-13T15:02:43;12.35;;;2.88;;
15312;SDS011;7757;52.626;4.746;2023-07-13T15:05:14;12.73;;;2.60;;
15312;SDS011;7757;52.626;4.746;2023-07-13T15:07:48;11.20;;;3.00;;
15312;SDS011;7757;52.626;4.746;2023-07-13T15:10:19;13.10;;;2.75;;
15312;SDS011;7757;52.626;4.746;2023-07-13T15:12:47;11.15;;;2.80;;
15312;SDS011;7757;52.626;4.746;2023-07-13T15:15:13;13.23;;;3.08;;
15312;SDS011;7757;52.626;4.746;2023-07-13T15:20:11;11.77;;;3.10;;
15312;SDS011;7757;52.626;4.746;2023-07-13T15:22:50;14.90;;;3.13;;
15312;SDS011;7757;52.626;4.746;2023-07-13T15:25:24;12.45;;;2.90;;
15312;SDS011;7757;52.626;4.746;2023-07-13T15:27:53;12.48;;;3.38;;
15312;SDS011;7757;52.626;4.746;2023-07-13T15:30:20;9.27;;;2.88;;
15312;SDS011;7757;52.626;4.746;2023-07-13T15:32:46;11.77;;;2.75;;
15312;SDS011;7757;52.626;4.746;2023-07-13T15:35:24;11.27;;;2.78;;
15312;SDS011;7757;52.626;4.746;2023-07-13T15:37:51;13.50;;;2.67;;
15312;SDS011;7757;52.626;4.746;2023-07-13T15:40:18;9.82;;;2.67;;
15312;SDS011;7757;52.626;4.746;2023-07-13T15:42:48;12.48;;;2.83;;
15312;SDS011;7757;52.626;4.746;2023-07-13T15:45:15;12.45;;;2.70;;
15312;SDS011;7757;52.626;4.746;2023-07-13T15:47:43;10.80;;;2.85;;
15312;SDS011;7757;52.626;4.746;2023-07-13T15:50:17;13.63;;;2.75;;
15312;SDS011;7757;52.626;4.746;2023-07-13T15:52:44;13.18;;;3.10;;
15312;SDS011;7757;52.626;4.746;2023-07-13T15:55:13;13.68;;;3.20;;
15312;SDS011;7757;52.626;4.746;2023-07-13T15:57:50;13.77;;;2.80;;
15312;SDS011;7757;52.626;4.746;2023-07-13T16:00:18;12.73;;;2.83;;
15312;SDS011;7757;52.626;4.746;2023-07-13T16:02:48;11.02;;;2.65;;
15312;SDS011;7757;52.626;4.746;2023-07-13T16:05:14;10.73;;;2.70;;